^^
Meteo Knjazevac Station Historical Data
Daily Summary for June 24, 2022 Units:  Metric    English   Both
Daily Weekly Monthly Yearly Custom
  High: Low: Average:
Temperature: 17.9 °C 14.2 °C 15.9 °C
Dew Point: 16.9 °C 14.1 °C 15.4 °C
Humidity: 99% 94% 97%
Wind Speed: 4.8km/h 0km/h 1km/h
Wind Gust: 8km/h - -
Wind- - SSE
Pressure: 1017.2 hPa 1016.8 hPa -
Precipitation: 0 mm    
Historical Graphs
 
 
Tabular Data for June 24, 2022
Time Temperature Dew Point Pressure Wind Wind Speed Wind Gust Humidity Rainfall Rate (Hourly) solar Conditions
00:00 17.9 °C 16.9 °C 1017.2 hPa NE 3.2 km/h 4.8 km/h 94% 0 mm 0 W/m2
00:10 17.8 °C 16.8 °C 1017.2 hPa NE 1.6 km/h 4.8 km/h 94% 0 mm 0 W/m2
00:20 17.7 °C 16.7 °C 1017.2 hPa Calm   3.2 km/h 94% 0 mm 0 W/m2
00:30 17.7 °C 16.9 °C 1017.2 hPa NE 1.6 km/h 4.8 km/h 95% 0 mm 0 W/m2
00:40 17.5 °C 16.5 °C 1017.2 hPa South 1.6 km/h 4.8 km/h 94% 0 mm 0 W/m2
00:50 17.4 °C 16.4 °C 1017.2 hPa Calm   8 km/h 94% 0 mm 0 W/m2
01:00 17.3 °C 16.5 °C 1016.8 hPa Calm   3.2 km/h 95% 0 mm 0 W/m2
01:10 17.2 °C 16.4 °C 1016.8 hPa ENE 4.8 km/h 8 km/h 95% 0 mm 0 W/m2
01:30 17.1 °C 16.3 °C 1016.8 hPa North 1.6 km/h 8 km/h 95% 0 mm 0 W/m2
01:40 16.9 °C 16.1 °C 1016.8 hPa NW 1.6 km/h 3.2 km/h 95% 0 mm 0 W/m2
01:50 16.6 °C 15.8 °C 1017.2 hPa SW 3.2 km/h 4.8 km/h 95% 0 mm 0 W/m2
02:10 16.1 °C 15.4 °C 1017.2 hPa WNW 1.6 km/h 4.8 km/h 96% 0 mm 0 W/m2
02:20 16 °C 15.7 °C 1017.2 hPa Calm   3.2 km/h 98% 0 mm 0 W/m2
02:30 16 °C 15.7 °C 1017.2 hPa North 1.6 km/h 3.2 km/h 98% 0 mm 0 W/m2
02:40 15.9 °C 15.6 °C 1017.2 hPa Calm   3.2 km/h 98% 0 mm 0 W/m2
02:50 15.8 °C 15.5 °C 1017.2 hPa North 1.6 km/h 3.2 km/h 98% 0 mm 0 W/m2
03:00 15.8 °C 15.7 °C 1017.2 hPa NE 1.6 km/h 8 km/h 99% 0 mm 0 W/m2
03:10 15.7 °C 15.4 °C 1017.2 hPa SE 1.6 km/h 8 km/h 98% 0 mm 0 W/m2
03:20 15.5 °C 15.2 °C 1016.8 hPa Calm   3.2 km/h 98% 0 mm 0 W/m2
03:30 15.5 °C 15.3 °C 1016.8 hPa Calm   4.8 km/h 99% 0 mm 0 W/m2
03:40 15.5 °C 15.3 °C 1016.8 hPa Calm   3.2 km/h 99% 0 mm 0 W/m2
03:50 15.4 °C 15.2 °C 1016.8 hPa Calm   3.2 km/h 99% 0 mm 0 W/m2
04:00 15.3 °C 15 °C 1016.8 hPa Calm   3.2 km/h 98% 0 mm 0 W/m2
04:10 15.2 °C 14.9 °C 1016.8 hPa NW 1.6 km/h 3.2 km/h 98% 0 mm 0 W/m2
04:30 14.9 °C 14.6 °C 1016.8 hPa Calm   1.6 km/h 98% 0 mm 0 W/m2
04:40 14.8 °C 14.5 °C 1016.8 hPa Calm   3.2 km/h 98% 0 mm 0 W/m2
04:50 14.6 °C 14.3 °C 1016.8 hPa Calm   3.2 km/h 98% 0 mm 3 W/m2
05:10 14.5 °C 14.2 °C 1016.8 hPa Calm   3.2 km/h 98% 0 mm 13 W/m2
05:20 14.4 °C 14.2 °C 1017.2 hPa Calm   3.2 km/h 99% 0 mm 21 W/m2
05:30 14.3 °C 14.2 °C 1017.2 hPa Calm   3.2 km/h 99% 0 mm 29 W/m2
05:40 14.3 °C 14.2 °C 1017.2 hPa Calm   1.6 km/h 99% 0 mm 37 W/m2
05:50 14.2 °C 14.1 °C 1017.2 hPa NW 1.6 km/h 3.2 km/h 99% 0 mm 66 W/m2
06:00 14.3 °C 14.2 °C 1017.2 hPa West 3.2 km/h 4.8 km/h 99% 0 mm 53 W/m2
Knjazevac, Serbia
Compliments of Weather Underground - 2 mb